createdAt,value
2023-05-06T00:00:29.668Z,1.50
2023-05-06T00:01:32.936Z,1.25
2023-05-06T00:02:36.264Z,2.00
2023-05-06T00:03:39.656Z,2.50
2023-05-06T00:04:42.800Z,2.00
2023-05-06T00:05:46.294Z,2.00
2023-05-06T00:06:49.773Z,2.50
2023-05-06T00:07:53.475Z,2.50
2023-05-06T00:08:56.965Z,2.00
2023-05-06T00:10:00.653Z,1.50
2023-05-06T00:11:03.937Z,2.50
2023-05-06T00:12:07.322Z,1.50
2023-05-06T00:13:10.856Z,2.25
2023-05-06T00:14:14.187Z,1.50
2023-05-06T00:15:18.093Z,1.50
2023-05-06T00:16:21.503Z,1.50
2023-05-06T00:17:25.091Z,1.00
2023-05-06T00:18:28.316Z,2.00
2023-05-06T00:19:31.751Z,2.25
2023-05-06T00:20:35.142Z,2.00
2023-05-06T00:21:38.540Z,2.00
2023-05-06T00:22:41.695Z,3.00
2023-05-06T00:23:44.778Z,1.50
2023-05-06T00:24:47.954Z,2.00
2023-05-06T00:25:51.237Z,2.00
2023-05-06T00:26:54.329Z,1.60
2023-05-06T00:27:57.508Z,2.75
2023-05-06T00:29:01.704Z,2.50
2023-05-06T00:30:05.092Z,2.00
2023-05-06T00:31:08.486Z,1.50
2023-05-06T00:32:12.096Z,1.50
2023-05-06T00:33:15.561Z,2.00
2023-05-06T00:34:18.879Z,2.00
2023-05-06T00:35:22.471Z,2.25
2023-05-06T00:36:25.615Z,2.50
2023-05-06T00:37:28.902Z,1.60
2023-05-06T00:38:32.491Z,2.50
2023-05-06T00:39:35.576Z,2.00
2023-05-06T00:40:38.751Z,2.00
2023-05-06T00:41:41.883Z,2.00
2023-05-06T00:42:45.528Z,2.00
2023-05-06T00:43:48.832Z,1.25
2023-05-06T00:44:52.092Z,1.00
2023-05-06T00:45:55.332Z,1.50
2023-05-06T00:46:58.573Z,2.00
2023-05-06T00:48:01.914Z,1.50
2023-05-06T00:49:05.241Z,2.00
2023-05-06T00:50:08.518Z,1.50
2023-05-06T00:51:11.704Z,2.00
2023-05-06T00:52:14.990Z,2.00
2023-05-06T00:53:18.164Z,1.50
2023-05-06T00:54:21.560Z,1.00
2023-05-06T00:55:24.734Z,1.50
2023-05-06T00:56:28.120Z,1.50
2023-05-06T00:57:31.205Z,1.50
2023-05-06T00:58:34.387Z,1.75
2023-05-06T00:59:37.877Z,2.00
2023-05-06T01:00:41.464Z,2.00
2023-05-06T01:01:44.752Z,2.00
2023-05-06T01:02:48.436Z,2.00
2023-05-06T01:03:51.542Z,2.00
2023-05-06T01:04:54.655Z,2.00
2023-05-06T01:05:57.890Z,2.00
2023-05-06T01:07:01.067Z,1.75
2023-05-06T01:08:04.221Z,1.75
2023-05-06T01:09:07.451Z,1.00
2023-05-06T01:10:10.515Z,1.00
2023-05-06T01:11:15.613Z,1.75
2023-05-06T01:12:17.796Z,2.50
2023-05-06T01:13:21.077Z,2.50
2023-05-06T01:14:24.270Z,1.50
2023-05-06T01:15:27.549Z,2.50
2023-05-06T01:16:30.918Z,2.25
2023-05-06T01:17:34.140Z,0.75
2023-05-06T01:18:37.417Z,1.50
2023-05-06T01:19:40.693Z,2.00
2023-05-06T01:20:43.884Z,1.75
2023-05-06T01:21:46.942Z,1.50
2023-05-06T01:22:50.379Z,1.00
2023-05-06T01:23:54.026Z,1.00
2023-05-06T01:24:57.222Z,0.50
2023-05-06T01:26:00.398Z,0.00
2023-05-06T01:27:03.886Z,0.00
2023-05-06T01:28:07.373Z,0.50
2023-05-06T01:29:10.513Z,0.00
2023-05-06T01:30:13.862Z,1.00
2023-05-06T01:31:17.375Z,1.00
2023-05-06T01:32:21.057Z,1.00
2023-05-06T01:33:24.412Z,1.00
2023-05-06T01:34:27.806Z,1.00
2023-05-06T01:35:31.597Z,1.00
2023-05-06T01:36:34.883Z,0.25
2023-05-06T01:37:38.064Z,1.00
2023-05-06T01:38:41.239Z,1.00
2023-05-06T01:39:44.622Z,1.00
2023-05-06T01:40:48.014Z,1.00
2023-05-06T01:41:51.615Z,1.00
2023-05-06T01:42:54.784Z,0.50
2023-05-06T01:43:57.974Z,1.00
2023-05-06T01:45:01.663Z,0.25
2023-05-06T01:46:05.140Z,0.50
2023-05-06T01:47:08.127Z,1.00
2023-05-06T01:48:11.518Z,1.00
2023-05-06T01:49:14.899Z,1.00
2023-05-06T01:50:18.084Z,1.50
2023-05-06T01:51:24.337Z,1.00
2023-05-06T01:52:28.037Z,0.50
2023-05-06T01:53:31.733Z,0.00
2023-05-06T01:54:35.111Z,1.00
2023-05-06T01:55:38.605Z,1.00
2023-05-06T01:56:42.103Z,0.50
2023-05-06T01:57:45.676Z,1.00
2023-05-06T01:58:49.074Z,1.00
2023-05-06T01:59:52.351Z,1.00
2023-05-06T02:00:55.431Z,1.00
2023-05-06T02:01:59.542Z,1.00
2023-05-06T02:03:03.566Z,1.50
2023-05-06T02:04:07.105Z,1.00
2023-05-06T02:05:10.983Z,1.00
2023-05-06T02:06:14.735Z,1.00
2023-05-06T02:07:18.207Z,1.00
2023-05-06T02:08:21.702Z,0.25
2023-05-06T02:09:25.810Z,0.75
2023-05-06T02:10:29.290Z,1.00
2023-05-06T02:11:32.881Z,1.00
2023-05-06T02:12:36.201Z,1.00
2023-05-06T02:13:39.565Z,1.00
2023-05-06T02:14:43.468Z,0.50
2023-05-06T02:15:46.934Z,0.00
2023-05-06T02:16:50.340Z,0.25
2023-05-06T02:17:53.948Z,0.50
2023-05-06T02:18:57.304Z,0.00
2023-05-06T02:20:01.314Z,1.00
2023-05-06T02:21:05.310Z,1.50
2023-05-06T02:22:08.798Z,1.00
2023-05-06T02:23:12.543Z,1.00
2023-05-06T02:24:15.975Z,1.00
2023-05-06T02:25:19.267Z,1.00
2023-05-06T02:26:22.667Z,1.00
2023-05-06T02:27:26.445Z,0.50
2023-05-06T02:28:29.827Z,0.50
2023-05-06T02:29:33.933Z,1.50
2023-05-06T02:30:37.420Z,1.25
2023-05-06T02:31:40.868Z,1.00
2023-05-06T02:32:44.345Z,1.25
2023-05-06T02:33:47.985Z,1.00
2023-05-06T02:34:51.505Z,1.00
2023-05-06T02:35:54.972Z,1.00
2023-05-06T02:36:58.453Z,1.00
2023-05-06T02:38:02.071Z,0.75
2023-05-06T02:39:05.331Z,1.00
2023-05-06T02:40:08.865Z,1.00
2023-05-06T02:41:12.216Z,0.50
2023-05-06T02:42:16.064Z,1.00
2023-05-06T02:43:19.508Z,1.00
2023-05-06T02:44:22.986Z,1.00
2023-05-06T02:45:26.372Z,0.25
2023-05-06T02:46:29.670Z,1.00
2023-05-06T02:47:33.194Z,1.25
2023-05-06T02:48:36.839Z,1.50
2023-05-06T02:49:40.958Z,1.00
2023-05-06T02:50:44.529Z,1.00
2023-05-06T02:51:47.926Z,1.50
2023-05-06T02:52:51.326Z,1.50
2023-05-06T02:53:54.489Z,0.50
2023-05-06T02:54:57.762Z,0.50
2023-05-06T02:56:01.049Z,1.50
2023-05-06T02:57:04.447Z,1.75
2023-05-06T02:58:07.934Z,2.00
2023-05-06T02:59:11.850Z,1.50
2023-05-06T03:00:15.123Z,1.25
2023-05-06T03:01:19.035Z,1.50
2023-05-06T03:02:22.033Z,1.25
2023-05-06T03:03:25.379Z,1.50
2023-05-06T03:04:28.755Z,1.75
2023-05-06T03:05:32.171Z,1.50
2023-05-06T03:06:35.744Z,1.00
2023-05-06T03:07:39.449Z,1.00
2023-05-06T03:08:42.722Z,1.25
2023-05-06T03:09:46.109Z,0.50
2023-05-06T03:10:49.488Z,2.00
2023-05-06T03:11:52.574Z,1.50
2023-05-06T03:12:56.247Z,1.00
2023-05-06T03:14:00.179Z,1.50
2023-05-06T03:15:03.244Z,1.50
2023-05-06T03:16:06.579Z,1.00
2023-05-06T03:17:09.824Z,1.00
2023-05-06T03:18:13.112Z,1.50
2023-05-06T03:19:16.288Z,1.25
2023-05-06T03:20:19.601Z,1.50
2023-05-06T03:21:22.788Z,2.00
2023-05-06T03:22:26.142Z,1.75
2023-05-06T03:23:29.216Z,0.50
2023-05-06T03:24:32.494Z,0.50
2023-05-06T03:25:36.097Z,1.00
2023-05-06T03:26:39.415Z,1.00
2023-05-06T03:27:42.763Z,1.00
2023-05-06T03:28:46.347Z,1.00
2023-05-06T03:29:49.942Z,1.00
2023-05-06T03:30:53.424Z,1.00
2023-05-06T03:33:00.063Z,1.00
2023-05-06T03:34:03.103Z,1.00
2023-05-06T03:35:06.364Z,1.00
2023-05-06T03:36:09.965Z,1.75
2023-05-06T03:37:13.338Z,1.50
2023-05-06T03:38:17.042Z,1.00
2023-05-06T03:39:20.627Z,1.25
2023-05-06T03:40:23.880Z,1.00
2023-05-06T03:41:27.097Z,1.50
2023-05-06T03:42:30.372Z,1.50
2023-05-06T03:43:33.865Z,1.00
2023-05-06T03:44:37.673Z,1.00
2023-05-06T03:45:41.064Z,1.00
2023-05-06T03:46:44.599Z,0.25
2023-05-06T03:47:48.412Z,0.50
2023-05-06T03:48:51.937Z,0.00
2023-05-06T03:49:55.647Z,1.00
2023-05-06T03:50:59.100Z,1.00
2023-05-06T03:52:02.711Z,0.50
2023-05-06T03:53:06.184Z,1.00
2023-05-06T03:54:09.813Z,1.25
2023-05-06T03:55:12.874Z,1.25
2023-05-06T03:56:16.457Z,0.50
2023-05-06T03:57:19.733Z,1.50
2023-05-06T03:58:23.114Z,0.75
2023-05-06T03:59:26.526Z,0.40
2023-05-06T04:00:29.900Z,1.00
2023-05-06T04:01:33.492Z,0.50
2023-05-06T04:02:37.169Z,0.25
2023-05-06T04:03:41.267Z,1.00
2023-05-06T04:04:44.877Z,1.00
2023-05-06T04:05:48.366Z,1.00
2023-05-06T04:06:51.719Z,1.50
2023-05-06T04:07:55.042Z,2.00
2023-05-06T04:08:58.527Z,1.50
2023-05-06T04:10:02.213Z,1.50
2023-05-06T04:11:05.608Z,1.50
2023-05-06T04:12:08.889Z,1.25
2023-05-06T04:13:12.467Z,0.75
2023-05-06T04:14:16.177Z,1.00
2023-05-06T04:15:19.868Z,1.25
2023-05-06T04:16:23.778Z,1.00
2023-05-06T04:17:27.076Z,1.00
2023-05-06T04:18:30.655Z,0.75
2023-05-06T04:19:34.441Z,1.00
2023-05-06T04:20:38.237Z,1.00
2023-05-06T04:21:41.515Z,1.00
2023-05-06T04:22:45.209Z,1.00
2023-05-06T04:23:48.699Z,1.00
2023-05-06T04:24:52.097Z,1.00
2023-05-06T04:25:55.471Z,0.25
2023-05-06T04:26:58.776Z,1.50
2023-05-06T04:28:02.252Z,1.00
2023-05-06T04:29:05.710Z,0.00
2023-05-06T04:30:09.327Z,1.00
2023-05-06T04:31:13.156Z,0.50
2023-05-06T04:32:16.516Z,1.00
2023-05-06T04:33:20.001Z,1.00
2023-05-06T04:34:23.174Z,0.75
2023-05-06T04:35:26.480Z,1.50
2023-05-06T04:36:29.865Z,1.25
2023-05-06T04:37:33.042Z,1.00
2023-05-06T04:38:36.130Z,0.75
2023-05-06T04:39:39.499Z,1.00
2023-05-06T04:40:42.794Z,1.00
2023-05-06T04:41:46.155Z,1.00
2023-05-06T04:42:49.438Z,0.75
2023-05-06T04:43:52.636Z,1.25
2023-05-06T04:44:55.817Z,1.00
2023-05-06T04:45:59.153Z,1.25
2023-05-06T04:47:02.502Z,1.50
2023-05-06T04:48:05.956Z,1.00
2023-05-06T04:49:10.402Z,1.50
2023-05-06T04:50:13.264Z,0.50
2023-05-06T04:51:16.861Z,1.00
2023-05-06T04:52:20.548Z,1.00
2023-05-06T04:53:24.048Z,1.25
2023-05-06T04:54:27.319Z,1.50
2023-05-06T04:55:30.707Z,0.75
2023-05-06T04:56:33.896Z,1.50
2023-05-06T04:57:37.184Z,1.50
2023-05-06T04:58:40.777Z,2.00
2023-05-06T04:59:43.839Z,1.00
2023-05-06T05:00:46.829Z,0.50
2023-05-06T05:01:50.253Z,1.00
2023-05-06T05:02:53.614Z,0.00
2023-05-06T05:03:56.900Z,0.75
2023-05-06T05:05:00.077Z,0.75
2023-05-06T05:06:03.271Z,1.00
2023-05-06T05:07:06.529Z,1.00
2023-05-06T05:08:09.916Z,1.00
2023-05-06T05:09:13.212Z,1.00
2023-05-06T05:10:16.682Z,1.00
2023-05-06T05:11:19.776Z,0.25
2023-05-06T05:12:22.648Z,1.00
2023-05-06T05:13:25.646Z,1.00
2023-05-06T05:14:28.841Z,1.00
2023-05-06T05:15:32.104Z,0.50
2023-05-06T05:16:35.560Z,1.50
2023-05-06T05:17:38.885Z,1.75
2023-05-06T05:18:41.968Z,2.00
2023-05-06T05:19:45.235Z,1.25
2023-05-06T05:20:48.617Z,0.25
2023-05-06T05:21:51.802Z,0.50
2023-05-06T05:22:55.000Z,1.00
2023-05-06T05:23:58.365Z,1.00
2023-05-06T05:25:01.450Z,1.50
2023-05-06T05:26:04.624Z,2.00
2023-05-06T05:27:07.706Z,1.25
2023-05-06T05:28:11.205Z,0.00
2023-05-06T05:29:14.490Z,1.00
2023-05-06T05:30:18.020Z,1.00
2023-05-06T05:31:21.150Z,0.00
2023-05-06T05:32:24.573Z,0.40
2023-05-06T05:33:28.083Z,0.75
2023-05-06T05:34:31.214Z,0.50
2023-05-06T05:35:34.804Z,0.50
2023-05-06T05:36:37.886Z,0.25
2023-05-06T05:37:41.165Z,0.50
2023-05-06T05:38:44.344Z,1.50
2023-05-06T05:39:47.546Z,1.00
2023-05-06T05:40:50.923Z,1.50
2023-05-06T05:41:54.399Z,1.50
2023-05-06T05:42:57.697Z,0.50
2023-05-06T05:44:00.879Z,0.50
2023-05-06T05:45:03.964Z,1.50
2023-05-06T05:46:07.152Z,1.50
2023-05-06T05:47:10.208Z,1.50
2023-05-06T05:48:13.390Z,1.00
2023-05-06T05:49:16.578Z,0.50
2023-05-06T05:50:19.761Z,0.50
2023-05-06T05:51:23.137Z,1.00
2023-05-06T05:52:26.650Z,1.25
2023-05-06T05:53:29.906Z,1.00
2023-05-06T05:54:33.154Z,1.00
2023-05-06T05:55:36.082Z,1.00
2023-05-06T05:56:39.164Z,1.00
2023-05-06T05:57:42.541Z,0.75
2023-05-06T05:58:45.830Z,1.40
2023-05-06T05:59:49.442Z,1.50
2023-05-06T06:00:52.811Z,1.00
2023-05-06T06:01:56.290Z,1.00
2023-05-06T06:02:59.777Z,1.00
2023-05-06T06:04:03.397Z,1.25
2023-05-06T06:05:07.225Z,1.50
2023-05-06T06:06:11.070Z,2.00
2023-05-06T06:07:15.072Z,1.25
2023-05-06T06:08:18.965Z,1.00
2023-05-06T06:09:22.470Z,1.00
2023-05-06T06:10:26.179Z,0.75
2023-05-06T06:11:29.663Z,0.25
2023-05-06T06:12:33.297Z,0.50
2023-05-06T06:13:36.619Z,1.00
2023-05-06T06:14:40.926Z,0.25
2023-05-06T06:15:44.747Z,0.75
2023-05-06T06:16:48.622Z,1.00
2023-05-06T06:17:52.133Z,1.50
2023-05-06T06:18:56.014Z,1.50
2023-05-06T06:19:59.493Z,1.00
2023-05-06T06:21:02.901Z,1.00
2023-05-06T06:22:06.600Z,2.00
2023-05-06T06:23:10.376Z,1.75
2023-05-06T06:24:14.195Z,2.00
2023-05-06T06:25:17.350Z,1.00
2023-05-06T06:26:20.544Z,0.50
2023-05-06T06:27:23.815Z,1.50
2023-05-06T06:28:27.108Z,1.00
2023-05-06T06:29:31.405Z,0.50
2023-05-06T06:30:34.884Z,1.25
2023-05-06T06:31:40.477Z,2.00
2023-05-06T06:32:43.662Z,2.00
2023-05-06T06:33:47.410Z,2.00
2023-05-06T06:34:50.905Z,1.75
2023-05-06T06:35:54.417Z,1.00
2023-05-06T06:36:58.092Z,1.50
2023-05-06T06:38:01.889Z,2.00
2023-05-06T06:39:05.475Z,2.00
2023-05-06T06:40:09.261Z,2.25
2023-05-06T06:41:12.876Z,2.50
2023-05-06T06:42:16.247Z,2.50
2023-05-06T06:43:19.737Z,1.75
2023-05-06T06:44:23.642Z,1.50
2023-05-06T06:45:26.916Z,2.00
2023-05-06T06:46:30.109Z,2.50
2023-05-06T06:47:33.721Z,2.50
2023-05-06T06:48:37.192Z,2.75
2023-05-06T06:49:40.792Z,3.00
2023-05-06T06:50:44.362Z,1.50
2023-05-06T06:51:47.759Z,2.00
2023-05-06T06:52:51.031Z,1.50
2023-05-06T06:53:54.535Z,1.50
2023-05-06T06:54:57.927Z,2.50
2023-05-06T06:56:01.393Z,2.50
2023-05-06T06:57:04.476Z,1.50
2023-05-06T06:58:07.646Z,2.50
2023-05-06T06:59:11.263Z,3.00
2023-05-06T07:00:14.339Z,3.00
2023-05-06T07:01:17.684Z,2.60
2023-05-06T07:02:20.797Z,2.00
2023-05-06T07:03:24.106Z,3.00
2023-05-06T07:04:27.228Z,2.50
2023-05-06T07:05:30.344Z,2.50
2023-05-06T07:06:33.738Z,3.00
2023-05-06T07:07:36.918Z,2.50
2023-05-06T07:08:40.208Z,3.00
2023-05-06T07:09:43.586Z,3.00
2023-05-06T07:10:46.765Z,2.50
2023-05-06T07:11:50.252Z,2.75
2023-05-06T07:12:53.871Z,3.00
2023-05-06T07:13:57.134Z,2.00
2023-05-06T07:15:00.419Z,2.00
2023-05-06T07:16:03.694Z,2.50
2023-05-06T07:17:06.902Z,2.50
2023-05-06T07:18:10.309Z,2.50
2023-05-06T07:19:13.350Z,3.00
2023-05-06T07:20:16.530Z,2.50
2023-05-06T07:21:19.752Z,2.75
2023-05-06T07:22:23.426Z,2.50
2023-05-06T07:23:26.792Z,3.50
2023-05-06T07:24:30.499Z,3.50
2023-05-06T07:25:33.975Z,3.00
2023-05-06T07:26:37.461Z,3.00
2023-05-06T07:27:40.350Z,3.00
2023-05-06T07:28:43.820Z,3.00
2023-05-06T07:29:47.003Z,2.50
2023-05-06T07:30:50.780Z,2.50
2023-05-06T07:31:53.897Z,2.50
2023-05-06T07:32:56.949Z,3.50
2023-05-06T07:34:00.158Z,3.50
2023-05-06T07:35:03.968Z,2.75
2023-05-06T07:36:07.341Z,3.00
2023-05-06T07:37:10.859Z,2.50
2023-05-06T07:38:14.008Z,2.50
2023-05-06T07:39:17.490Z,3.75
2023-05-06T07:40:20.850Z,3.50
2023-05-06T07:41:24.463Z,3.50
2023-05-06T07:42:28.064Z,2.75
2023-05-06T07:43:31.248Z,3.50
2023-05-06T07:44:34.730Z,4.50
2023-05-06T07:45:38.427Z,5.00
2023-05-06T07:46:42.211Z,6.50
2023-05-06T07:47:45.989Z,5.75
2023-05-06T07:48:49.221Z,4.25
2023-05-06T07:49:52.994Z,4.50
2023-05-06T07:50:56.487Z,5.50
2023-05-06T07:52:00.011Z,13.75
2023-05-06T07:53:03.584Z,6.75
2023-05-06T07:54:07.053Z,4.50
2023-05-06T07:55:10.817Z,15.25
2023-05-06T07:56:14.452Z,17.50
2023-05-06T07:57:17.854Z,19.00
2023-05-06T07:58:21.239Z,15.25
2023-05-06T07:59:24.429Z,10.50
2023-05-06T08:00:28.296Z,55.25
2023-05-06T08:01:31.892Z,38.00
2023-05-06T08:02:35.831Z,32.25
2023-05-06T08:03:39.457Z,23.75
2023-05-06T08:04:43.167Z,12.50
2023-05-06T08:05:46.250Z,10.50
2023-05-06T08:06:49.375Z,5.75
2023-05-06T08:07:52.617Z,5.00
2023-05-06T08:08:55.830Z,4.00
2023-05-06T08:09:59.296Z,4.00
2023-05-06T08:11:02.771Z,9.75
2023-05-06T08:12:06.580Z,10.75
2023-05-06T08:13:10.101Z,4.50
2023-05-06T08:14:13.144Z,4.00
2023-05-06T08:15:16.341Z,5.00
2023-05-06T08:16:19.676Z,4.00
2023-05-06T08:17:22.812Z,4.50
2023-05-06T08:18:25.938Z,6.00
2023-05-06T08:19:29.271Z,4.50
2023-05-06T08:20:32.645Z,4.75
2023-05-06T08:21:36.149Z,5.00
2023-05-06T08:22:39.838Z,5.00
2023-05-06T08:23:42.889Z,4.75
2023-05-06T08:24:46.210Z,5.25
2023-05-06T08:25:49.405Z,5.00
2023-05-06T08:26:52.758Z,5.00
2023-05-06T08:27:56.163Z,5.00
2023-05-06T08:28:59.548Z,4.50
2023-05-06T08:30:03.035Z,4.75
2023-05-06T08:31:06.434Z,5.00
2023-05-06T08:32:10.093Z,5.50
2023-05-06T08:33:13.725Z,5.50
2023-05-06T08:34:17.203Z,5.00
2023-05-06T08:35:20.465Z,5.25
2023-05-06T08:36:23.873Z,5.50
2023-05-06T08:37:27.552Z,6.00
2023-05-06T08:38:30.944Z,6.75
2023-05-06T08:39:34.949Z,7.50
2023-05-06T08:40:38.550Z,8.00
2023-05-06T08:41:42.015Z,6.50
2023-05-06T08:42:45.441Z,5.50
2023-05-06T08:43:48.915Z,5.50
2023-05-06T08:44:52.700Z,5.50
2023-05-06T08:45:56.228Z,4.50
2023-05-06T08:46:59.484Z,4.75
2023-05-06T08:48:02.776Z,5.50
2023-05-06T08:49:05.931Z,6.00
2023-05-06T08:50:09.326Z,5.00
2023-05-06T08:51:12.263Z,4.50
2023-05-06T08:52:15.345Z,4.00
2023-05-06T08:53:18.669Z,4.50
2023-05-06T08:54:21.955Z,4.50
2023-05-06T08:55:25.326Z,5.00
2023-05-06T08:56:28.404Z,4.50
2023-05-06T08:57:31.590Z,5.00
2023-05-06T08:58:34.672Z,5.50
2023-05-06T08:59:37.747Z,4.40
2023-05-06T09:00:40.649Z,4.00
2023-05-06T09:01:43.868Z,4.00
2023-05-06T09:02:47.690Z,3.25
2023-05-06T09:03:50.808Z,3.75
2023-05-06T09:04:54.176Z,4.00
2023-05-06T09:05:57.561Z,4.50
2023-05-06T09:07:00.988Z,4.50
2023-05-06T09:08:04.231Z,4.50
2023-05-06T09:09:07.524Z,5.50
2023-05-06T09:10:11.062Z,5.50
2023-05-06T09:11:14.282Z,5.25
2023-05-06T09:12:17.470Z,4.50
2023-05-06T09:13:21.201Z,4.00
2023-05-06T09:14:24.454Z,4.25
2023-05-06T09:15:27.536Z,4.00
2023-05-06T09:16:31.257Z,5.00
2023-05-06T09:17:34.210Z,5.00
2023-05-06T09:18:37.389Z,4.00
2023-05-06T09:19:40.568Z,4.00
2023-05-06T09:20:43.540Z,4.00
2023-05-06T09:21:47.229Z,4.50
2023-05-06T09:22:50.632Z,5.00
2023-05-06T09:23:53.719Z,4.50
2023-05-06T09:24:57.148Z,4.50
2023-05-06T09:26:00.469Z,3.50
2023-05-06T09:27:03.758Z,3.50
2023-05-06T09:28:07.376Z,4.50
2023-05-06T09:29:10.551Z,4.50
2023-05-06T09:30:13.713Z,6.00
2023-05-06T09:31:16.943Z,6.00
2023-05-06T09:32:20.395Z,6.75
2023-05-06T09:33:23.682Z,7.00
2023-05-06T09:34:26.981Z,8.00
2023-05-06T09:35:30.161Z,7.50
2023-05-06T09:36:33.424Z,7.00
2023-05-06T09:37:36.710Z,7.00
2023-05-06T09:38:40.197Z,9.25
2023-05-06T09:39:43.810Z,9.00
2023-05-06T09:40:47.686Z,8.50
2023-05-06T09:41:51.272Z,8.50
2023-05-06T09:42:55.485Z,7.50
2023-05-06T09:43:58.973Z,8.00
2023-05-06T09:45:02.537Z,7.75
2023-05-06T09:46:05.942Z,7.50
2023-05-06T09:47:09.254Z,8.00
2023-05-06T09:48:12.773Z,8.00
2023-05-06T09:49:16.413Z,8.00
2023-05-06T09:50:19.703Z,7.50
2023-05-06T09:51:22.739Z,7.50
2023-05-06T09:52:26.272Z,8.75
2023-05-06T09:53:30.525Z,9.00
2023-05-06T09:54:33.762Z,8.50
2023-05-06T09:55:37.621Z,8.50
2023-05-06T09:56:40.857Z,7.50
2023-05-06T09:57:44.791Z,6.75
2023-05-06T09:58:48.441Z,7.50
2023-05-06T09:59:52.413Z,7.00
2023-05-06T10:00:56.113Z,8.00
2023-05-06T10:01:59.967Z,8.00
2023-05-06T10:03:03.790Z,7.75
2023-05-06T10:04:07.586Z,8.00
2023-05-06T10:05:12.030Z,8.00
2023-05-06T10:06:16.119Z,7.00
2023-05-06T10:07:19.823Z,7.75
2023-05-06T10:08:23.494Z,8.00
2023-05-06T10:09:27.300Z,8.50
2023-05-06T10:10:31.005Z,8.00
2023-05-06T10:11:34.891Z,7.50
2023-05-06T10:12:38.858Z,7.75
2023-05-06T10:13:42.484Z,7.75
2023-05-06T10:14:45.996Z,7.50
2023-05-06T10:15:50.105Z,7.75
2023-05-06T10:16:53.870Z,7.75
2023-05-06T10:17:58.291Z,7.50
2023-05-06T10:19:01.874Z,7.50
2023-05-06T10:20:05.490Z,8.50
2023-05-06T10:21:09.160Z,9.50
2023-05-06T10:22:12.772Z,9.00
2023-05-06T10:23:16.452Z,9.25
2023-05-06T10:24:20.045Z,8.50
2023-05-06T10:25:24.141Z,8.00
2023-05-06T10:26:28.251Z,7.50
2023-05-06T10:27:31.943Z,7.00
2023-05-06T10:28:35.525Z,7.50
2023-05-06T10:29:39.023Z,8.25
2023-05-06T10:30:42.912Z,8.00
2023-05-06T10:31:46.832Z,7.00
2023-05-06T10:32:50.328Z,7.50
2023-05-06T10:33:53.907Z,7.50
2023-05-06T10:34:57.379Z,8.00
2023-05-06T10:36:01.173Z,8.50
2023-05-06T10:37:05.088Z,8.00
2023-05-06T10:38:08.560Z,7.75
2023-05-06T10:39:12.148Z,8.00
2023-05-06T10:40:15.848Z,7.50
2023-05-06T10:41:19.644Z,8.00
2023-05-06T10:42:22.930Z,7.50
2023-05-06T10:43:26.622Z,7.50
2023-05-06T10:44:30.514Z,6.50
2023-05-06T10:45:33.964Z,6.50
2023-05-06T10:46:37.915Z,7.00
2023-05-06T10:47:41.525Z,7.00
2023-05-06T10:48:45.310Z,6.00
2023-05-06T10:49:49.397Z,6.50
2023-05-06T10:50:53.006Z,7.75
2023-05-06T10:51:56.781Z,8.25
2023-05-06T10:53:00.486Z,8.50
2023-05-06T10:54:04.596Z,9.50
2023-05-06T10:55:08.412Z,8.50
2023-05-06T10:56:12.482Z,8.50
2023-05-06T10:57:16.378Z,8.50
2023-05-06T10:58:19.869Z,9.00
2023-05-06T10:59:23.768Z,9.50
2023-05-06T11:00:27.871Z,8.50
2023-05-06T11:01:31.561Z,8.75
2023-05-06T11:02:35.520Z,9.00
2023-05-06T11:03:38.867Z,7.50
2023-05-06T11:04:42.557Z,7.75
2023-05-06T11:05:46.216Z,8.00
2023-05-06T11:06:49.728Z,8.00
2023-05-06T11:07:54.845Z,7.50
2023-05-06T11:08:57.752Z,7.50
2023-05-06T11:10:01.339Z,7.50
2023-05-06T11:11:05.134Z,8.00
2023-05-06T11:12:08.607Z,7.50
2023-05-06T11:13:11.921Z,7.00
2023-05-06T11:14:15.508Z,7.50
2023-05-06T11:15:19.176Z,7.25
2023-05-06T11:16:23.332Z,7.50
2023-05-06T11:17:26.687Z,7.50
2023-05-06T11:18:30.468Z,8.00
2023-05-06T11:19:34.065Z,8.00
2023-05-06T11:20:37.747Z,9.50
2023-05-06T11:21:41.505Z,10.25
2023-05-06T11:22:45.041Z,8.50
2023-05-06T11:23:48.531Z,8.50
2023-05-06T11:24:52.247Z,9.00
2023-05-06T11:25:55.519Z,8.75
2023-05-06T11:26:59.318Z,9.00
2023-05-06T11:28:02.785Z,8.50
2023-05-06T11:29:06.378Z,8.50
2023-05-06T11:30:09.842Z,8.75
2023-05-06T11:31:13.804Z,8.50
2023-05-06T11:32:18.275Z,8.00
2023-05-06T11:33:22.182Z,8.00
2023-05-06T11:34:26.096Z,8.50
2023-05-06T11:35:29.871Z,8.50
2023-05-06T11:36:34.295Z,7.75
2023-05-06T11:37:38.135Z,7.75
2023-05-06T11:38:42.081Z,7.50
2023-05-06T11:39:46.003Z,7.50
2023-05-06T11:40:49.680Z,7.00
2023-05-06T11:41:53.502Z,7.50
2023-05-06T11:42:57.689Z,8.00
2023-05-06T11:44:02.286Z,9.00
2023-05-06T11:45:05.877Z,8.50
2023-05-06T11:46:09.783Z,8.50
2023-05-06T11:47:13.990Z,8.00
2023-05-06T11:48:17.608Z,9.50
2023-05-06T11:49:21.985Z,8.75
2023-05-06T11:50:26.197Z,8.00
2023-05-06T11:51:29.984Z,9.50
2023-05-06T11:52:33.799Z,9.50
2023-05-06T11:53:37.464Z,9.00
2023-05-06T11:54:40.984Z,9.00
2023-05-06T11:55:45.283Z,12.00
2023-05-06T11:56:49.391Z,13.50
2023-05-06T11:57:52.975Z,15.50
2023-05-06T11:58:56.980Z,15.50
2023-05-06T12:00:01.300Z,15.75
2023-05-06T12:01:05.099Z,16.00
2023-05-06T12:02:09.306Z,15.75
2023-05-06T12:03:13.357Z,14.50
2023-05-06T12:04:17.018Z,15.50
2023-05-06T12:05:20.885Z,16.50
2023-05-06T12:06:24.976Z,17.25
2023-05-06T12:07:29.289Z,18.00
2023-05-06T12:08:32.886Z,17.00
2023-05-06T12:09:37.165Z,17.50
2023-05-06T12:10:41.188Z,18.50
2023-05-06T12:11:45.161Z,18.00
2023-05-06T12:12:49.025Z,17.25
2023-05-06T12:13:52.674Z,16.75
2023-05-06T12:14:56.481Z,16.00
2023-05-06T12:16:00.269Z,15.25
2023-05-06T12:17:04.591Z,16.00
2023-05-06T12:18:08.637Z,15.50
2023-05-06T12:19:12.380Z,15.50
2023-05-06T12:20:16.390Z,16.50
2023-05-06T12:21:20.183Z,16.50
2023-05-06T12:22:25.194Z,16.00
2023-05-06T12:23:28.727Z,15.00
2023-05-06T12:24:31.966Z,14.50
2023-05-06T12:25:35.276Z,14.50
2023-05-06T12:26:38.744Z,14.50
2023-05-06T12:27:42.847Z,14.25
2023-05-06T12:28:46.234Z,14.00
2023-05-06T12:29:49.523Z,14.25
2023-05-06T12:30:53.215Z,13.00
2023-05-06T12:31:56.856Z,14.50
2023-05-06T12:33:00.626Z,15.00
2023-05-06T12:34:04.411Z,14.00
2023-05-06T12:35:07.922Z,14.25
2023-05-06T12:36:11.701Z,15.00
2023-05-06T12:37:15.274Z,15.00
2023-05-06T12:38:18.576Z,16.00
2023-05-06T12:39:22.257Z,15.75
2023-05-06T12:40:25.846Z,15.00
2023-05-06T12:41:29.437Z,16.00
2023-05-06T12:42:32.736Z,17.00
2023-05-06T12:43:36.248Z,15.50
2023-05-06T12:44:39.710Z,15.50
2023-05-06T12:45:43.458Z,16.50
2023-05-06T12:46:47.434Z,17.75
2023-05-06T12:47:50.865Z,18.00
2023-05-06T12:48:54.591Z,17.50
2023-05-06T12:49:58.448Z,17.50
2023-05-06T12:51:02.398Z,16.50
2023-05-06T12:52:06.285Z,17.00
2023-05-06T12:53:10.299Z,17.00
2023-05-06T12:54:13.867Z,18.00
2023-05-06T12:55:17.582Z,16.75
2023-05-06T12:56:21.368Z,16.00
2023-05-06T12:57:25.152Z,15.75
2023-05-06T12:58:29.064Z,15.75
2023-05-06T12:59:32.469Z,16.50
2023-05-06T13:00:36.183Z,17.00
2023-05-06T13:01:40.149Z,15.75
2023-05-06T13:02:43.833Z,15.00
2023-05-06T13:03:48.036Z,15.50
2023-05-06T13:04:52.560Z,13.00
2023-05-06T13:05:56.134Z,14.00
2023-05-06T13:06:59.834Z,15.00
2023-05-06T13:08:03.214Z,16.25
2023-05-06T13:09:06.816Z,16.50
2023-05-06T13:10:10.830Z,15.50
2023-05-06T13:11:15.028Z,15.00
2023-05-06T13:12:18.957Z,15.00
2023-05-06T13:13:23.013Z,15.00
2023-05-06T13:14:26.627Z,15.75
2023-05-06T13:15:30.301Z,15.50
2023-05-06T13:16:34.468Z,15.00
2023-05-06T13:17:38.326Z,16.00
2023-05-06T13:18:42.098Z,14.75
2023-05-06T13:19:45.796Z,13.75
2023-05-06T13:20:49.409Z,14.00
2023-05-06T13:21:53.184Z,14.00
2023-05-06T13:22:57.195Z,14.50
2023-05-06T13:24:00.987Z,14.75
2023-05-06T13:25:04.343Z,14.25
2023-05-06T13:26:07.875Z,14.25
2023-05-06T13:27:11.562Z,13.50
2023-05-06T13:28:15.150Z,14.25
2023-05-06T13:29:18.428Z,15.75
2023-05-06T13:30:21.782Z,16.00
2023-05-06T13:31:25.331Z,15.75
2023-05-06T13:32:28.805Z,15.50
2023-05-06T13:33:32.069Z,16.50
2023-05-06T13:34:35.357Z,15.50
2023-05-06T13:35:39.060Z,13.50
2023-05-06T13:36:42.440Z,13.50
2023-05-06T13:37:46.236Z,14.00
2023-05-06T13:38:49.933Z,15.00
2023-05-06T13:39:53.327Z,14.00
2023-05-06T13:40:56.806Z,11.80
2023-05-06T13:42:00.831Z,12.00
2023-05-06T13:43:04.398Z,12.00
2023-05-06T13:44:07.852Z,12.75
2023-05-06T13:45:11.276Z,14.00
2023-05-06T13:46:15.120Z,15.00
2023-05-06T13:47:19.071Z,15.50
2023-05-06T13:48:22.354Z,16.50
2023-05-06T13:49:25.740Z,16.00
2023-05-06T13:50:29.143Z,16.50
2023-05-06T13:51:32.415Z,16.75
2023-05-06T13:52:35.900Z,16.75
2023-05-06T13:53:39.513Z,17.50
2023-05-06T13:54:43.182Z,16.75
2023-05-06T13:55:46.470Z,16.75
2023-05-06T13:56:49.649Z,18.00
2023-05-06T13:57:53.365Z,16.50
2023-05-06T13:58:56.850Z,16.00
2023-05-06T14:00:00.020Z,17.00
2023-05-06T14:01:03.303Z,17.50
2023-05-06T14:02:08.923Z,18.00